Terminal Aerodrome Forecast
Issued by NWS Tulsa, OK

Home | Current Version | Previous Version | Text Only | Print | Product List | Glossary On
Versions: 1 2 3 4 5 6 7 8 9 10 11 12 13 14 15 16 17 18 19 20 21 22 23 24 25 26 27 28 29 30 31 32
000
FTPQ31 PGUM 262000 RRA
TAFPQ
TAF

PTSA 262033Z 2621/2718 07013KT 6SM -RA SCT015 BKN100
      TEMPO 2621/2624 07013G25KT 2SM TSRA SCT008 BKN015CB OVC040
     FM270000 07013KT P6SM VCSH SCT018 BKN110=

USA.gov is the U.S. government's official web portal to all federal, state and local government web resources and services.